sensor_id;sensor_type;location;lat;lon;timestamp;temperature;humidity
66096;SHT31;53861;53.422;14.530;2024-02-26T00:02:00;4.67;99.25
66096;SHT31;53861;53.422;14.530;2024-02-26T00:04:29;4.68;99.98
66096;SHT31;53861;53.422;14.530;2024-02-26T00:06:56;4.78;99.99
66096;SHT31;53861;53.422;14.530;2024-02-26T00:09:24;4.64;99.85
66096;SHT31;53861;53.422;14.530;2024-02-26T00:11:51;4.57;99.98
66096;SHT31;53861;53.422;14.530;2024-02-26T00:14:18;4.47;99.47
66096;SHT31;53861;53.422;14.530;2024-02-26T00:16:46;4.43;99.62
66096;SHT31;53861;53.422;14.530;2024-02-26T00:19:13;4.24;99.43
66096;SHT31;53861;53.422;14.530;2024-02-26T00:21:42;4.30;99.98
66096;SHT31;53861;53.422;14.530;2024-02-26T00:24:09;4.37;99.99
66096;SHT31;53861;53.422;14.530;2024-02-26T00:26:36;4.40;99.99
66096;SHT31;53861;53.422;14.530;2024-02-26T00:29:03;4.34;99.69
66096;SHT31;53861;53.422;14.530;2024-02-26T00:31:31;4.29;99.79
66096;SHT31;53861;53.422;14.530;2024-02-26T00:33:58;4.32;99.99
66096;SHT31;53861;53.422;14.530;2024-02-26T00:36:26;4.29;99.99
66096;SHT31;53861;53.422;14.530;2024-02-26T00:38:55;4.23;99.95
66096;SHT31;53861;53.422;14.530;2024-02-26T00:41:22;4.20;99.99
66096;SHT31;53861;53.422;14.530;2024-02-26T00:43:50;4.13;99.99
66096;SHT31;53861;53.422;14.530;2024-02-26T00:46:17;4.13;99.99
66096;SHT31;53861;53.422;14.530;2024-02-26T00:48:44;4.06;99.99
66096;SHT31;53861;53.422;14.530;2024-02-26T00:51:12;3.99;99.99
66096;SHT31;53861;53.422;14.530;2024-02-26T00:53:39;3.94;99.99
66096;SHT31;53861;53.422;14.530;2024-02-26T00:56:08;3.96;99.99
66096;SHT31;53861;53.422;14.530;2024-02-26T00:58:35;3.92;99.92
66096;SHT31;53861;53.422;14.530;2024-02-26T01:01:03;3.90;99.99
66096;SHT31;53861;53.422;14.530;2024-02-26T01:03:30;3.90;99.99
66096;SHT31;53861;53.422;14.530;2024-02-26T01:05:57;3.82;99.99
66096;SHT31;53861;53.422;14.530;2024-02-26T01:08:24;3.83;99.99
66096;SHT31;53861;53.422;14.530;2024-02-26T01:10:52;3.75;99.99
66096;SHT31;53861;53.422;14.530;2024-02-26T01:13:20;3.63;99.99
66096;SHT31;53861;53.422;14.530;2024-02-26T01:15:48;3.65;99.99
66096;SHT31;53861;53.422;14.530;2024-02-26T01:18:15;3.62;99.99
66096;SHT31;53861;53.422;14.530;2024-02-26T01:20:42;3.62;99.99
66096;SHT31;53861;53.422;14.530;2024-02-26T01:23:09;3.48;99.99
66096;SHT31;53861;53.422;14.530;2024-02-26T01:25:37;3.35;99.99
66096;SHT31;53861;53.422;14.530;2024-02-26T01:28:05;3.20;99.98
66096;SHT31;53861;53.422;14.530;2024-02-26T01:30:33;3.29;99.99
66096;SHT31;53861;53.422;14.530;2024-02-26T01:33:01;3.22;99.99
66096;SHT31;53861;53.422;14.530;2024-02-26T01:35:28;3.20;99.99
66096;SHT31;53861;53.422;14.530;2024-02-26T01:37:55;3.18;99.99
66096;SHT31;53861;53.422;14.530;2024-02-26T01:40:26;3.10;99.99
66096;SHT31;53861;53.422;14.530;2024-02-26T01:42:54;3.05;99.99
66096;SHT31;53861;53.422;14.530;2024-02-26T01:45:21;2.96;99.99
66096;SHT31;53861;53.422;14.530;2024-02-26T01:47:52;2.80;99.99
66096;SHT31;53861;53.422;14.530;2024-02-26T01:50:19;2.90;99.99
66096;SHT31;53861;53.422;14.530;2024-02-26T01:52:49;2.91;99.99
66096;SHT31;53861;53.422;14.530;2024-02-26T01:55:17;2.90;99.99
66096;SHT31;53861;53.422;14.530;2024-02-26T01:57:45;2.88;99.99
66096;SHT31;53861;53.422;14.530;2024-02-26T02:00:14;2.54;99.76
66096;SHT31;53861;53.422;14.530;2024-02-26T02:02:52;2.72;99.99
66096;SHT31;53861;53.422;14.530;2024-02-26T02:05:21;2.86;99.99
66096;SHT31;53861;53.422;14.530;2024-02-26T02:07:49;2.86;99.99
66096;SHT31;53861;53.422;14.530;2024-02-26T02:10:17;2.72;99.99
66096;SHT31;53861;53.422;14.530;2024-02-26T02:12:48;2.60;99.99
66096;SHT31;53861;53.422;14.530;2024-02-26T02:15:16;2.50;99.99
66096;SHT31;53861;53.422;14.530;2024-02-26T02:17:43;2.36;99.81
66096;SHT31;53861;53.422;14.530;2024-02-26T02:20:17;2.42;99.99
66096;SHT31;53861;53.422;14.530;2024-02-26T02:22:46;2.35;99.99
66096;SHT31;53861;53.422;14.530;2024-02-26T02:25:13;2.28;99.99
66096;SHT31;53861;53.422;14.530;2024-02-26T02:27:42;2.26;99.99
66096;SHT31;53861;53.422;14.530;2024-02-26T02:30:11;2.28;99.99
66096;SHT31;53861;53.422;14.530;2024-02-26T02:32:40;2.24;99.99
66096;SHT31;53861;53.422;14.530;2024-02-26T02:35:07;2.30;99.99
66096;SHT31;53861;53.422;14.530;2024-02-26T02:37:35;2.35;99.99
66096;SHT31;53861;53.422;14.530;2024-02-26T02:40:05;2.42;99.99
66096;SHT31;53861;53.422;14.530;2024-02-26T02:42:33;2.46;99.99
66096;SHT31;53861;53.422;14.530;2024-02-26T02:45:00;2.39;99.99
66096;SHT31;53861;53.422;14.530;2024-02-26T02:47:27;2.32;99.99
66096;SHT31;53861;53.422;14.530;2024-02-26T02:49:55;2.08;99.56
66096;SHT31;53861;53.422;14.530;2024-02-26T02:52:22;2.12;99.99
66096;SHT31;53861;53.422;14.530;2024-02-26T02:54:49;2.21;99.99
66096;SHT31;53861;53.422;14.530;2024-02-26T02:57:18;2.11;99.99
66096;SHT31;53861;53.422;14.530;2024-02-26T02:59:46;2.21;99.99
66096;SHT31;53861;53.422;14.530;2024-02-26T03:02:13;2.22;99.99
66096;SHT31;53861;53.422;14.530;2024-02-26T03:04:40;2.21;99.99
66096;SHT31;53861;53.422;14.530;2024-02-26T03:07:08;2.18;99.99
66096;SHT31;53861;53.422;14.530;2024-02-26T03:09:35;2.18;99.99
66096;SHT31;53861;53.422;14.530;2024-02-26T03:12:02;2.12;99.99
66096;SHT31;53861;53.422;14.530;2024-02-26T03:14:31;2.09;99.99
66096;SHT31;53861;53.422;14.530;2024-02-26T03:16:58;2.06;99.99
66096;SHT31;53861;53.422;14.530;2024-02-26T03:19:25;2.18;99.99
66096;SHT31;53861;53.422;14.530;2024-02-26T03:21:52;2.11;99.99
66096;SHT31;53861;53.422;14.530;2024-02-26T03:24:19;2.05;99.99
66096;SHT31;53861;53.422;14.530;2024-02-26T03:26:46;1.88;99.99
66096;SHT31;53861;53.422;14.530;2024-02-26T03:29:14;1.88;99.99
66096;SHT31;53861;53.422;14.530;2024-02-26T03:31:42;1.84;99.99
66096;SHT31;53861;53.422;14.530;2024-02-26T03:34:10;1.92;99.99
66096;SHT31;53861;53.422;14.530;2024-02-26T03:36:38;1.98;99.99
66096;SHT31;53861;53.422;14.530;2024-02-26T03:39:05;2.01;99.99
66096;SHT31;53861;53.422;14.530;2024-02-26T03:41:33;1.74;99.99
66096;SHT31;53861;53.422;14.530;2024-02-26T03:44:01;1.78;99.99
66096;SHT31;53861;53.422;14.530;2024-02-26T03:46:28;1.82;99.99
66096;SHT31;53861;53.422;14.530;2024-02-26T03:48:56;1.91;99.99
66096;SHT31;53861;53.422;14.530;2024-02-26T03:51:24;1.79;99.99
66096;SHT31;53861;53.422;14.530;2024-02-26T03:53:51;1.73;99.99
66096;SHT31;53861;53.422;14.530;2024-02-26T03:56:18;1.60;99.98
66096;SHT31;53861;53.422;14.530;2024-02-26T03:58:46;1.74;99.99
66096;SHT31;53861;53.422;14.530;2024-02-26T04:01:13;1.77;99.99
66096;SHT31;53861;53.422;14.530;2024-02-26T04:03:41;1.91;99.99
66096;SHT31;53861;53.422;14.530;2024-02-26T04:06:11;1.77;99.80
66096;SHT31;53861;53.422;14.530;2024-02-26T04:08:40;1.89;99.99
66096;SHT31;53861;53.422;14.530;2024-02-26T04:11:07;1.86;99.99
66096;SHT31;53861;53.422;14.530;2024-02-26T04:13:35;1.79;99.99
66096;SHT31;53861;53.422;14.530;2024-02-26T04:16:04;1.81;99.99
66096;SHT31;53861;53.422;14.530;2024-02-26T04:18:31;1.58;99.84
66096;SHT31;53861;53.422;14.530;2024-02-26T04:20:59;1.65;99.99
66096;SHT31;53861;53.422;14.530;2024-02-26T04:23:28;1.67;99.99
66096;SHT31;53861;53.422;14.530;2024-02-26T04:25:55;1.65;99.99
66096;SHT31;53861;53.422;14.530;2024-02-26T04:28:22;1.60;99.99
66096;SHT31;53861;53.422;14.530;2024-02-26T04:30:51;1.68;99.99
66096;SHT31;53861;53.422;14.530;2024-02-26T04:33:18;1.71;99.99
66096;SHT31;53861;53.422;14.530;2024-02-26T04:35:46;1.55;99.99
66096;SHT31;53861;53.422;14.530;2024-02-26T04:38:13;1.53;99.99
66096;SHT31;53861;53.422;14.530;2024-02-26T04:40:42;1.53;99.99
66096;SHT31;53861;53.422;14.530;2024-02-26T04:43:09;1.71;99.99
66096;SHT31;53861;53.422;14.530;2024-02-26T04:45:36;1.82;99.99
66096;SHT31;53861;53.422;14.530;2024-02-26T04:48:04;1.85;99.99
66096;SHT31;53861;53.422;14.530;2024-02-26T04:50:31;1.82;99.99
66096;SHT31;53861;53.422;14.530;2024-02-26T04:52:59;1.77;99.99
66096;SHT31;53861;53.422;14.530;2024-02-26T04:55:27;1.68;99.99
66096;SHT31;53861;53.422;14.530;2024-02-26T04:57:55;1.51;99.99
66096;SHT31;53861;53.422;14.530;2024-02-26T05:00:24;1.58;99.99
66096;SHT31;53861;53.422;14.530;2024-02-26T05:02:51;1.54;99.99
66096;SHT31;53861;53.422;14.530;2024-02-26T05:05:19;1.41;99.99
66096;SHT31;53861;53.422;14.530;2024-02-26T05:07:48;1.37;99.99
66096;SHT31;53861;53.422;14.530;2024-02-26T05:10:15;1.34;99.99
66096;SHT31;53861;53.422;14.530;2024-02-26T05:12:42;1.40;99.99
66096;SHT31;53861;53.422;14.530;2024-02-26T05:15:11;1.43;99.99
66096;SHT31;53861;53.422;14.530;2024-02-26T05:17:44;1.34;99.99
66096;SHT31;53861;53.422;14.530;2024-02-26T05:20:12;1.55;99.99
66096;SHT31;53861;53.422;14.530;2024-02-26T05:22:41;1.60;99.99
66096;SHT31;53861;53.422;14.530;2024-02-26T05:25:08;1.58;99.99
66096;SHT31;53861;53.422;14.530;2024-02-26T05:27:35;1.73;99.99
66096;SHT31;53861;53.422;14.530;2024-02-26T05:30:03;1.60;99.99
66096;SHT31;53861;53.422;14.530;2024-02-26T05:32:32;1.60;99.99
66096;SHT31;53861;53.422;14.530;2024-02-26T05:34:59;1.54;99.99
66096;SHT31;53861;53.422;14.530;2024-02-26T05:37:26;1.55;99.99
66096;SHT31;53861;53.422;14.530;2024-02-26T05:39:54;1.63;99.99
66096;SHT31;53861;53.422;14.530;2024-02-26T05:42:21;1.53;99.99
66096;SHT31;53861;53.422;14.530;2024-02-26T05:44:48;1.61;99.99
66096;SHT31;53861;53.422;14.530;2024-02-26T05:47:16;1.57;99.99
66096;SHT31;53861;53.422;14.530;2024-02-26T05:49:44;1.50;99.99
66096;SHT31;53861;53.422;14.530;2024-02-26T05:52:11;1.63;99.99
66096;SHT31;53861;53.422;14.530;2024-02-26T05:54:39;1.63;99.99
66096;SHT31;53861;53.422;14.530;2024-02-26T05:57:06;1.51;99.99
66096;SHT31;53861;53.422;14.530;2024-02-26T05:59:33;1.50;99.99
66096;SHT31;53861;53.422;14.530;2024-02-26T06:02:00;1.47;99.99
66096;SHT31;53861;53.422;14.530;2024-02-26T06:04:28;1.44;99.99
66096;SHT31;53861;53.422;14.530;2024-02-26T06:06:56;1.57;99.99
66096;SHT31;53861;53.422;14.530;2024-02-26T06:09:24;1.48;99.99
66096;SHT31;53861;53.422;14.530;2024-02-26T06:11:51;1.54;99.99
66096;SHT31;53861;53.422;14.530;2024-02-26T06:14:18;1.63;99.99
66096;SHT31;53861;53.422;14.530;2024-02-26T06:16:46;1.71;99.99
66096;SHT31;53861;53.422;14.530;2024-02-26T06:19:14;1.55;99.99
66096;SHT31;53861;53.422;14.530;2024-02-26T06:21:41;1.63;99.99
66096;SHT31;53861;53.422;14.530;2024-02-26T06:24:10;1.78;99.99
66096;SHT31;53861;53.422;14.530;2024-02-26T06:26:37;1.89;99.99
66096;SHT31;53861;53.422;14.530;2024-02-26T06:29:04;1.82;99.99
66096;SHT31;53861;53.422;14.530;2024-02-26T06:31:32;1.75;99.99
66096;SHT31;53861;53.422;14.530;2024-02-26T06:33:59;1.91;99.99
66096;SHT31;53861;53.422;14.530;2024-02-26T06:36:27;1.78;99.88
66096;SHT31;53861;53.422;14.530;2024-02-26T06:38:54;1.89;99.99
66096;SHT31;53861;53.422;14.530;2024-02-26T06:41:23;2.01;99.99
66096;SHT31;53861;53.422;14.530;2024-02-26T06:43:53;2.01;99.99
66096;SHT31;53861;53.422;14.530;2024-02-26T06:46:20;2.15;99.99
66096;SHT31;53861;53.422;14.530;2024-02-26T06:48:48;2.26;99.99
66096;SHT31;53861;53.422;14.530;2024-02-26T06:51:15;2.45;99.99
66096;SHT31;53861;53.422;14.530;2024-02-26T06:53:43;2.70;99.99
66096;SHT31;53861;53.422;14.530;2024-02-26T06:56:10;2.88;99.99
66096;SHT31;53861;53.422;14.530;2024-02-26T06:58:39;2.90;99.67
66096;SHT31;53861;53.422;14.530;2024-02-26T07:01:11;3.24;99.36
66096;SHT31;53861;53.422;14.530;2024-02-26T07:03:40;3.65;99.46
66096;SHT31;53861;53.422;14.530;2024-02-26T07:06:08;3.73;98.78
66096;SHT31;53861;53.422;14.530;2024-02-26T07:08:35;3.62;97.76
66096;SHT31;53861;53.422;14.530;2024-02-26T07:11:03;3.78;97.81
66096;SHT31;53861;53.422;14.530;2024-02-26T07:13:34;3.86;98.18
66096;SHT31;53861;53.422;14.530;2024-02-26T07:16:04;3.41;97.48
66096;SHT31;53861;53.422;14.530;2024-02-26T07:18:32;3.55;98.33
66096;SHT31;53861;53.422;14.530;2024-02-26T07:21:01;3.66;98.24
66096;SHT31;53861;53.422;14.530;2024-02-26T07:23:29;3.90;98.37
66096;SHT31;53861;53.422;14.530;2024-02-26T07:25:56;4.41;98.02
66096;SHT31;53861;53.422;14.530;2024-02-26T07:28:24;4.72;96.86
66096;SHT31;53861;53.422;14.530;2024-02-26T07:30:51;5.18;97.57
66096;SHT31;53861;53.422;14.530;2024-02-26T07:33:20;5.56;96.55
66096;SHT31;53861;53.422;14.530;2024-02-26T07:35:48;6.69;96.50
66096;SHT31;53861;53.422;14.530;2024-02-26T07:38:15;7.31;93.95
66096;SHT31;53861;53.422;14.530;2024-02-26T07:40:42;8.12;94.06
66096;SHT31;53861;53.422;14.530;2024-02-26T07:43:10;7.98;90.16
66096;SHT31;53861;53.422;14.530;2024-02-26T07:45:37;8.92;90.29
66096;SHT31;53861;53.422;14.530;2024-02-26T07:48:05;10.06;86.58
66096;SHT31;53861;53.422;14.530;2024-02-26T07:50:34;10.80;86.69
66096;SHT31;53861;53.422;14.530;2024-02-26T07:53:02;10.69;84.52
66096;SHT31;53861;53.422;14.530;2024-02-26T07:55:29;12.21;82.84
66096;SHT31;53861;53.422;14.530;2024-02-26T07:57:57;11.78;77.08
66096;SHT31;53861;53.422;14.530;2024-02-26T08:00:24;12.18;79.13
66096;SHT31;53861;53.422;14.530;2024-02-26T08:02:51;11.09;80.56
66096;SHT31;53861;53.422;14.530;2024-02-26T08:05:18;11.44;79.72
66096;SHT31;53861;53.422;14.530;2024-02-26T08:07:47;12.90;80.58
66096;SHT31;53861;53.422;14.530;2024-02-26T08:10:15;12.94;73.39
66096;SHT31;53861;53.422;14.530;2024-02-26T08:12:42;13.34;75.32
66096;SHT31;53861;53.422;14.530;2024-02-26T08:15:11;13.34;76.30
66096;SHT31;53861;53.422;14.530;2024-02-26T08:17:38;14.33;73.96
66096;SHT31;53861;53.422;14.530;2024-02-26T08:20:06;14.20;73.75
66096;SHT31;53861;53.422;14.530;2024-02-26T08:22:34;13.58;69.36
66096;SHT31;53861;53.422;14.530;2024-02-26T08:25:03;14.66;74.10
66096;SHT31;53861;53.422;14.530;2024-02-26T08:27:32;14.61;73.17
66096;SHT31;53861;53.422;14.530;2024-02-26T08:30:00;14.44;70.21
66096;SHT31;53861;53.422;14.530;2024-02-26T08:32:27;14.59;73.55
66096;SHT31;53861;53.422;14.530;2024-02-26T08:34:54;15.53;69.81
66096;SHT31;53861;53.422;14.530;2024-02-26T08:37:22;15.59;69.74
66096;SHT31;53861;53.422;14.530;2024-02-26T08:39:49;15.42;68.13
66096;SHT31;53861;53.422;14.530;2024-02-26T08:42:18;15.66;72.11
66096;SHT31;53861;53.422;14.530;2024-02-26T08:44:45;15.86;66.91
66096;SHT31;53861;53.422;14.530;2024-02-26T08:47:12;15.39;68.49
66096;SHT31;53861;53.422;14.530;2024-02-26T08:49:42;15.67;68.16
66096;SHT31;53861;53.422;14.530;2024-02-26T08:52:10;16.50;66.66
66096;SHT31;53861;53.422;14.530;2024-02-26T08:54:37;16.95;64.35
66096;SHT31;53861;53.422;14.530;2024-02-26T08:57:05;17.54;65.90
66096;SHT31;53861;53.422;14.530;2024-02-26T08:59:34;18.59;64.86
66096;SHT31;53861;53.422;14.530;2024-02-26T09:02:01;18.42;60.83
66096;SHT31;53861;53.422;14.530;2024-02-26T09:04:28;18.69;60.42
66096;SHT31;53861;53.422;14.530;2024-02-26T09:06:55;17.70;63.46
66096;SHT31;53861;53.422;14.530;2024-02-26T09:09:23;17.35;69.45
66096;SHT31;53861;53.422;14.530;2024-02-26T09:11:52;17.38;63.80
66096;SHT31;53861;53.422;14.530;2024-02-26T09:14:21;18.08;65.61
66096;SHT31;53861;53.422;14.530;2024-02-26T09:16:49;18.42;62.05
66096;SHT31;53861;53.422;14.530;2024-02-26T09:19:17;18.08;63.30
66096;SHT31;53861;53.422;14.530;2024-02-26T09:21:45;17.76;60.38
66096;SHT31;53861;53.422;14.530;2024-02-26T09:24:12;16.26;65.08
66096;SHT31;53861;53.422;14.530;2024-02-26T09:26:40;16.36;68.07
66096;SHT31;53861;53.422;14.530;2024-02-26T09:29:07;15.73;67.31
66096;SHT31;53861;53.422;14.530;2024-02-26T09:31:35;17.18;65.96
66096;SHT31;53861;53.422;14.530;2024-02-26T09:34:03;17.71;62.58
66096;SHT31;53861;53.422;14.530;2024-02-26T09:36:31;17.25;63.17
66096;SHT31;53861;53.422;14.530;2024-02-26T09:38:58;17.16;63.79
66096;SHT31;53861;53.422;14.530;2024-02-26T09:41:28;17.71;66.19
66096;SHT31;53861;53.422;14.530;2024-02-26T09:43:57;17.62;63.20
66096;SHT31;53861;53.422;14.530;2024-02-26T09:46:25;17.56;65.72
66096;SHT31;53861;53.422;14.530;2024-02-26T09:48:53;17.32;63.00
66096;SHT31;53861;53.422;14.530;2024-02-26T09:51:23;16.94;64.66
66096;SHT31;53861;53.422;14.530;2024-02-26T09:53:51;16.34;63.95
66096;SHT31;53861;53.422;14.530;2024-02-26T09:56:19;16.78;65.52
66096;SHT31;53861;53.422;14.530;2024-02-26T09:58:47;17.60;65.94
66096;SHT31;53861;53.422;14.530;2024-02-26T10:01:20;17.38;62.42
66096;SHT31;53861;53.422;14.530;2024-02-26T10:03:55;16.85;64.57
66096;SHT31;53861;53.422;14.530;2024-02-26T10:06:26;15.35;69.08
66096;SHT31;53861;53.422;14.530;2024-02-26T10:08:54;15.30;68.89
66096;SHT31;53861;53.422;14.530;2024-02-26T10:11:25;15.18;68.69
66096;SHT31;53861;53.422;14.530;2024-02-26T10:13:52;15.18;68.42
66096;SHT31;53861;53.422;14.530;2024-02-26T10:16:19;15.12;68.35
66096;SHT31;53861;53.422;14.530;2024-02-26T10:18:47;14.70;68.51
66096;SHT31;53861;53.422;14.530;2024-02-26T10:21:16;14.76;70.35
66096;SHT31;53861;53.422;14.530;2024-02-26T10:23:46;15.22;68.79
66096;SHT31;53861;53.422;14.530;2024-02-26T10:26:15;15.28;66.74
66096;SHT31;53861;53.422;14.530;2024-02-26T10:28:43;16.07;69.07
66096;SHT31;53861;53.422;14.530;2024-02-26T10:31:11;16.64;66.53
66096;SHT31;53861;53.422;14.530;2024-02-26T10:33:41;17.33;65.13
66096;SHT31;53861;53.422;14.530;2024-02-26T10:36:09;17.69;62.82
66096;SHT31;53861;53.422;14.530;2024-02-26T10:38:37;18.10;62.26
66096;SHT31;53861;53.422;14.530;2024-02-26T10:41:06;18.93;64.79
66096;SHT31;53861;53.422;14.530;2024-02-26T10:43:34;19.38;61.82
66096;SHT31;53861;53.422;14.530;2024-02-26T10:46:01;18.21;62.14
66096;SHT31;53861;53.422;14.530;2024-02-26T10:48:29;17.59;65.48
66096;SHT31;53861;53.422;14.530;2024-02-26T10:50:57;18.93;61.54
66096;SHT31;53861;53.422;14.530;2024-02-26T10:53:29;19.33;58.09
66096;SHT31;53861;53.422;14.530;2024-02-26T10:56:00;19.24;62.30
66096;SHT31;53861;53.422;14.530;2024-02-26T10:58:31;17.87;62.85
66096;SHT31;53861;53.422;14.530;2024-02-26T11:00:58;17.90;66.94
66096;SHT31;53861;53.422;14.530;2024-02-26T11:03:26;18.37;61.62
66096;SHT31;53861;53.422;14.530;2024-02-26T11:05:58;18.56;60.16
66096;SHT31;53861;53.422;14.530;2024-02-26T11:08:28;17.94;61.89
66096;SHT31;53861;53.422;14.530;2024-02-26T11:10:56;18.02;66.93
66096;SHT31;53861;53.422;14.530;2024-02-26T11:13:28;17.94;62.97
66096;SHT31;53861;53.422;14.530;2024-02-26T11:15:58;19.49;63.84
66096;SHT31;53861;53.422;14.530;2024-02-26T11:18:27;19.74;61.09
66096;SHT31;53861;53.422;14.530;2024-02-26T11:20:55;21.15;56.42
66096;SHT31;53861;53.422;14.530;2024-02-26T11:23:23;19.60;58.94
66096;SHT31;53861;53.422;14.530;2024-02-26T11:25:52;20.39;59.72
66096;SHT31;53861;53.422;14.530;2024-02-26T11:28:21;21.71;56.40
66096;SHT31;53861;53.422;14.530;2024-02-26T11:30:50;19.94;55.78
66096;SHT31;53861;53.422;14.530;2024-02-26T11:33:20;20.19;54.49
66096;SHT31;53861;53.422;14.530;2024-02-26T11:35:47;19.12;59.66
66096;SHT31;53861;53.422;14.530;2024-02-26T11:38:17;19.91;59.45
66096;SHT31;53861;53.422;14.530;2024-02-26T11:40:47;19.92;57.54
66096;SHT31;53861;53.422;14.530;2024-02-26T11:43:14;20.46;52.52
66096;SHT31;53861;53.422;14.530;2024-02-26T11:45:49;21.27;55.33
66096;SHT31;53861;53.422;14.530;2024-02-26T11:48:22;20.45;53.79
66096;SHT31;53861;53.422;14.530;2024-02-26T11:50:52;19.92;53.22
66096;SHT31;53861;53.422;14.530;2024-02-26T11:53:20;19.54;55.53
66096;SHT31;53861;53.422;14.530;2024-02-26T11:55:47;19.36;54.10
66096;SHT31;53861;53.422;14.530;2024-02-26T11:58:15;19.17;54.58
66096;SHT31;53861;53.422;14.530;2024-02-26T12:00:42;18.71;54.92
66096;SHT31;53861;53.422;14.530;2024-02-26T12:03:10;20.35;56.88
66096;SHT31;53861;53.422;14.530;2024-02-26T12:05:39;20.45;53.37
66096;SHT31;53861;53.422;14.530;2024-02-26T12:08:07;19.70;53.43
66096;SHT31;53861;53.422;14.530;2024-02-26T12:10:36;19.84;53.93
66096;SHT31;53861;53.422;14.530;2024-02-26T12:13:06;20.17;55.98
66096;SHT31;53861;53.422;14.530;2024-02-26T12:15:37;20.21;55.06
66096;SHT31;53861;53.422;14.530;2024-02-26T12:18:06;21.01;56.40
66096;SHT31;53861;53.422;14.530;2024-02-26T12:20:36;20.14;57.31
66096;SHT31;53861;53.422;14.530;2024-02-26T12:23:05;20.33;58.08
66096;SHT31;53861;53.422;14.530;2024-02-26T12:25:33;20.91;56.51
66096;SHT31;53861;53.422;14.530;2024-02-26T12:28:00;20.35;55.00
66096;SHT31;53861;53.422;14.530;2024-02-26T12:30:31;21.20;55.34
66096;SHT31;53861;53.422;14.530;2024-02-26T12:33:14;21.54;54.93
66096;SHT31;53861;53.422;14.530;2024-02-26T12:35:41;20.91;53.90
66096;SHT31;53861;53.422;14.530;2024-02-26T12:38:12;19.54;58.04
66096;SHT31;53861;53.422;14.530;2024-02-26T12:40:39;19.74;58.02
66096;SHT31;53861;53.422;14.530;2024-02-26T12:43:07;18.92;55.07
66096;SHT31;53861;53.422;14.530;2024-02-26T12:45:40;19.41;60.99
66096;SHT31;53861;53.422;14.530;2024-02-26T12:48:08;19.07;57.30
66096;SHT31;53861;53.422;14.530;2024-02-26T12:50:37;18.82;62.18
66096;SHT31;53861;53.422;14.530;2024-02-26T12:53:05;17.96;60.13
66096;SHT31;53861;53.422;14.530;2024-02-26T12:55:34;17.65;60.23
66096;SHT31;53861;53.422;14.530;2024-02-26T12:58:05;17.89;60.81
66096;SHT31;53861;53.422;14.530;2024-02-26T13:00:33;18.55;60.08
66096;SHT31;53861;53.422;14.530;2024-02-26T13:03:00;18.81;56.77
66096;SHT31;53861;53.422;14.530;2024-02-26T13:05:28;18.47;60.91
66096;SHT31;53861;53.422;14.530;2024-02-26T13:07:58;18.82;60.30
66096;SHT31;53861;53.422;14.530;2024-02-26T13:10:26;17.79;61.14
66096;SHT31;53861;53.422;14.530;2024-02-26T13:12:57;18.69;59.98
66096;SHT31;53861;53.422;14.530;2024-02-26T13:15:28;19.36;57.26
66096;SHT31;53861;53.422;14.530;2024-02-26T13:17:55;19.05;58.08
66096;SHT31;53861;53.422;14.530;2024-02-26T13:20:28;19.31;58.39
66096;SHT31;53861;53.422;14.530;2024-02-26T13:23:05;18.65;58.42
66096;SHT31;53861;53.422;14.530;2024-02-26T13:25:35;17.35;60.17
66096;SHT31;53861;53.422;14.530;2024-02-26T13:28:13;17.94;60.42
66096;SHT31;53861;53.422;14.530;2024-02-26T13:30:42;18.22;59.11
66096;SHT31;53861;53.422;14.530;2024-02-26T13:33:23;18.98;58.29
66096;SHT31;53861;53.422;14.530;2024-02-26T13:35:56;18.72;58.60
66096;SHT31;53861;53.422;14.530;2024-02-26T13:38:24;18.15;59.47
66096;SHT31;53861;53.422;14.530;2024-02-26T13:40:52;19.24;58.23
66096;SHT31;53861;53.422;14.530;2024-02-26T13:43:21;17.83;59.96
66096;SHT31;53861;53.422;14.530;2024-02-26T13:45:49;18.10;60.59
66096;SHT31;53861;53.422;14.530;2024-02-26T13:48:16;17.87;60.46
66096;SHT31;53861;53.422;14.530;2024-02-26T13:50:44;17.86;59.16
66096;SHT31;53861;53.422;14.530;2024-02-26T13:53:12;17.76;59.77
66096;SHT31;53861;53.422;14.530;2024-02-26T13:55:40;17.53;60.57
66096;SHT31;53861;53.422;14.530;2024-02-26T13:58:11;17.77;59.17
66096;SHT31;53861;53.422;14.530;2024-02-26T14:00:40;18.08;58.75
66096;SHT31;53861;53.422;14.530;2024-02-26T14:03:08;17.71;59.21
66096;SHT31;53861;53.422;14.530;2024-02-26T14:05:35;17.30;61.70
66096;SHT31;53861;53.422;14.530;2024-02-26T14:08:06;16.85;64.38
66096;SHT31;53861;53.422;14.530;2024-02-26T14:10:33;16.34;64.27
66096;SHT31;53861;53.422;14.530;2024-02-26T14:13:01;15.86;64.52
66096;SHT31;53861;53.422;14.530;2024-02-26T14:15:28;14.90;68.72
66096;SHT31;53861;53.422;14.530;2024-02-26T14:17:59;14.73;67.70
66096;SHT31;53861;53.422;14.530;2024-02-26T14:20:29;14.15;67.95
66096;SHT31;53861;53.422;14.530;2024-02-26T14:22:56;13.99;68.71
66096;SHT31;53861;53.422;14.530;2024-02-26T14:25:23;13.99;70.05
66096;SHT31;53861;53.422;14.530;2024-02-26T14:27:51;14.22;69.59
66096;SHT31;53861;53.422;14.530;2024-02-26T14:30:20;13.74;69.95
66096;SHT31;53861;53.422;14.530;2024-02-26T14:32:47;13.79;70.36
66096;SHT31;53861;53.422;14.530;2024-02-26T14:35:16;13.72;70.02
66096;SHT31;53861;53.422;14.530;2024-02-26T14:37:45;13.83;69.88
66096;SHT31;53861;53.422;14.530;2024-02-26T14:40:16;13.81;69.93
66096;SHT31;53861;53.422;14.530;2024-02-26T14:42:43;13.85;69.02
66096;SHT31;53861;53.422;14.530;2024-02-26T14:45:11;13.50;70.09
66096;SHT31;53861;53.422;14.530;2024-02-26T14:47:41;13.20;70.62
66096;SHT31;53861;53.422;14.530;2024-02-26T14:50:09;13.14;72.14
66096;SHT31;53861;53.422;14.530;2024-02-26T14:52:41;12.83;72.25
66096;SHT31;53861;53.422;14.530;2024-02-26T14:55:10;12.83;72.35
66096;SHT31;53861;53.422;14.530;2024-02-26T14:57:37;12.87;71.74
66096;SHT31;53861;53.422;14.530;2024-02-26T15:00:05;12.63;72.56
66096;SHT31;53861;53.422;14.530;2024-02-26T15:02:33;12.72;72.93
66096;SHT31;53861;53.422;14.530;2024-02-26T15:05:00;12.79;73.09
66096;SHT31;53861;53.422;14.530;2024-02-26T15:07:27;13.00;72.47
66096;SHT31;53861;53.422;14.530;2024-02-26T15:09:56;12.97;72.44
66096;SHT31;53861;53.422;14.530;2024-02-26T15:12:25;12.55;73.14
66096;SHT31;53861;53.422;14.530;2024-02-26T15:14:53;12.76;73.43
66096;SHT31;53861;53.422;14.530;2024-02-26T15:17:21;12.79;74.01
66096;SHT31;53861;53.422;14.530;2024-02-26T15:19:49;12.41;74.65
66096;SHT31;53861;53.422;14.530;2024-02-26T15:22:16;12.33;74.80
66096;SHT31;53861;53.422;14.530;2024-02-26T15:24:44;12.25;74.90
66096;SHT31;53861;53.422;14.530;2024-02-26T15:27:14;12.57;73.69
66096;SHT31;53861;53.422;14.530;2024-02-26T15:29:42;12.60;73.46